sensor_id;sensor_type;location;lat;lon;timestamp;pressure;altitude;pressure_sealevel;temperature;humidity
51053;BME280;37093;37.716;-122.060;2022-09-09T07:01:13;98762.85;;;30.01;25.46
51053;BME280;37093;37.716;-122.060;2022-09-09T07:03:45;98754.22;;;30.32;24.28
51053;BME280;37093;37.716;-122.060;2022-09-09T07:06:16;98748.50;;;32.00;23.07
51053;BME280;37093;37.716;-122.060;2022-09-09T07:08:48;98747.89;;;32.50;23.28
51053;BME280;37093;37.716;-122.060;2022-09-09T07:11:17;98753.78;;;32.17;23.91
51053;BME280;37093;37.716;-122.060;2022-09-09T07:13:46;98756.63;;;31.79;24.22
51053;BME280;37093;37.716;-122.060;2022-09-09T07:16:16;98760.63;;;31.99;24.37
51053;BME280;37093;37.716;-122.060;2022-09-09T07:18:45;98760.45;;;31.77;24.65
51053;BME280;37093;37.716;-122.060;2022-09-09T07:21:14;98761.48;;;31.34;24.74
51053;BME280;37093;37.716;-122.060;2022-09-09T07:23:43;98759.26;;;31.47;24.45
51053;BME280;37093;37.716;-122.060;2022-09-09T07:26:12;98756.59;;;31.37;24.40
51053;BME280;37093;37.716;-122.060;2022-09-09T07:28:41;98753.41;;;31.32;24.62
51053;BME280;37093;37.716;-122.060;2022-09-09T07:31:14;98752.54;;;31.22;25.01
51053;BME280;37093;37.716;-122.060;2022-09-09T07:33:44;98751.78;;;31.19;24.94
51053;BME280;37093;37.716;-122.060;2022-09-09T07:36:16;98747.49;;;31.13;24.76
51053;BME280;37093;37.716;-122.060;2022-09-09T07:38:45;98745.39;;;31.09;25.01
51053;BME280;37093;37.716;-122.060;2022-09-09T07:41:16;98746.81;;;31.04;25.17
51053;BME280;37093;37.716;-122.060;2022-09-09T07:43:46;98743.62;;;31.16;25.36
51053;BME280;37093;37.716;-122.060;2022-09-09T07:46:16;98743.00;;;30.84;25.57
51053;BME280;37093;37.716;-122.060;2022-09-09T07:48:46;98740.25;;;30.74;25.49
51053;BME280;37093;37.716;-122.060;2022-09-09T07:51:16;98739.73;;;30.86;25.59
51053;BME280;37093;37.716;-122.060;2022-09-09T07:53:46;98740.12;;;30.57;25.64
51053;BME280;37093;37.716;-122.060;2022-09-09T07:56:17;98741.90;;;30.70;25.63
51053;BME280;37093;37.716;-122.060;2022-09-09T07:58:46;98737.53;;;30.39;25.65
51053;BME280;37093;37.716;-122.060;2022-09-09T08:01:19;98738.10;;;30.33;25.80
51053;BME280;37093;37.716;-122.060;2022-09-09T08:03:54;98736.69;;;30.30;25.79
51053;BME280;37093;37.716;-122.060;2022-09-09T08:06:23;98729.49;;;30.50;25.85
51053;BME280;37093;37.716;-122.060;2022-09-09T08:08:51;98722.90;;;30.71;25.71
51053;BME280;37093;37.716;-122.060;2022-09-09T08:11:20;98717.11;;;30.39;25.80
51053;BME280;37093;37.716;-122.060;2022-09-09T08:13:50;98714.00;;;30.32;25.78
51053;BME280;37093;37.716;-122.060;2022-09-09T08:16:21;98711.62;;;30.26;25.78
51053;BME280;37093;37.716;-122.060;2022-09-09T08:18:50;98705.95;;;30.15;25.89
51053;BME280;37093;37.716;-122.060;2022-09-09T08:21:20;98705.68;;;30.06;25.84
51053;BME280;37093;37.716;-122.060;2022-09-09T08:23:52;98706.50;;;29.98;25.69
51053;BME280;37093;37.716;-122.060;2022-09-09T08:26:22;98709.12;;;30.17;25.83
51053;BME280;37093;37.716;-122.060;2022-09-09T08:28:53;98710.08;;;29.84;25.92
51053;BME280;37093;37.716;-122.060;2022-09-09T08:31:23;98706.91;;;30.04;26.08
51053;BME280;37093;37.716;-122.060;2022-09-09T08:33:52;98706.04;;;29.95;26.02
51053;BME280;37093;37.716;-122.060;2022-09-09T08:36:23;98706.11;;;29.61;26.15
51053;BME280;37093;37.716;-122.060;2022-09-09T08:38:53;98706.31;;;29.83;26.36
51053;BME280;37093;37.716;-122.060;2022-09-09T08:41:41;98701.19;;;29.94;26.52
51053;BME280;37093;37.716;-122.060;2022-09-09T08:44:21;98693.59;;;29.63;26.33
51053;BME280;37093;37.716;-122.060;2022-09-09T08:46:58;98687.27;;;29.58;26.32
51053;BME280;37093;37.716;-122.060;2022-09-09T08:49:45;98681.15;;;29.23;26.07
51053;BME280;37093;37.716;-122.060;2022-09-09T08:52:22;98681.18;;;29.67;26.47
51053;BME280;37093;37.716;-122.060;2022-09-09T08:54:53;98678.87;;;29.36;26.36
51053;BME280;37093;37.716;-122.060;2022-09-09T08:57:26;98680.84;;;29.28;26.44
51053;BME280;37093;37.716;-122.060;2022-09-09T08:59:56;98676.89;;;29.22;26.45
51053;BME280;37093;37.716;-122.060;2022-09-09T09:02:36;98679.65;;;29.16;26.41
51053;BME280;37093;37.716;-122.060;2022-09-09T09:05:15;98678.35;;;29.09;26.19
51053;BME280;37093;37.716;-122.060;2022-09-09T09:07:59;98680.49;;;29.49;26.10
51053;BME280;37093;37.716;-122.060;2022-09-09T09:10:44;98678.62;;;29.19;26.37
51053;BME280;37093;37.716;-122.060;2022-09-09T09:13:17;98678.22;;;28.91;26.54
51053;BME280;37093;37.716;-122.060;2022-09-09T09:15:50;98678.52;;;29.30;26.47
51053;BME280;37093;37.716;-122.060;2022-09-09T09:18:22;98681.53;;;29.21;26.27
51053;BME280;37093;37.716;-122.060;2022-09-09T09:21:01;98684.11;;;28.72;26.39
51053;BME280;37093;37.716;-122.060;2022-09-09T09:23:39;98678.82;;;29.05;26.44
51053;BME280;37093;37.716;-122.060;2022-09-09T09:26:11;98673.36;;;28.96;26.63
51053;BME280;37093;37.716;-122.060;2022-09-09T09:28:40;98671.31;;;28.63;27.00
51053;BME280;37093;37.716;-122.060;2022-09-09T09:31:10;98669.08;;;28.78;27.08
51053;BME280;37093;37.716;-122.060;2022-09-09T09:33:46;98665.63;;;28.69;27.15
51053;BME280;37093;37.716;-122.060;2022-09-09T09:36:15;98664.42;;;28.64;27.23
51053;BME280;37093;37.716;-122.060;2022-09-09T09:38:54;98665.93;;;28.53;27.40
51053;BME280;37093;37.716;-122.060;2022-09-09T09:41:40;98663.01;;;28.52;27.52
51053;BME280;37093;37.716;-122.060;2022-09-09T09:44:24;98662.93;;;28.37;27.80
51053;BME280;37093;37.716;-122.060;2022-09-09T09:47:05;98661.69;;;28.56;27.97
51053;BME280;37093;37.716;-122.060;2022-09-09T09:49:34;98661.42;;;28.42;27.99
51053;BME280;37093;37.716;-122.060;2022-09-09T09:52:03;98659.55;;;28.35;28.20
51053;BME280;37093;37.716;-122.060;2022-09-09T09:54:37;98654.91;;;28.23;28.49
51053;BME280;37093;37.716;-122.060;2022-09-09T09:57:10;98652.82;;;28.39;28.28
51053;BME280;37093;37.716;-122.060;2022-09-09T09:59:39;98648.81;;;28.28;27.73
51053;BME280;37093;37.716;-122.060;2022-09-09T10:02:16;98646.69;;;27.74;27.75
51053;BME280;37093;37.716;-122.060;2022-09-09T10:04:45;98643.72;;;27.65;27.69
51053;BME280;37093;37.716;-122.060;2022-09-09T10:07:19;98640.11;;;28.12;27.62
51053;BME280;37093;37.716;-122.060;2022-09-09T10:09:52;98632.52;;;27.80;27.34
51053;BME280;37093;37.716;-122.060;2022-09-09T10:12:32;98626.23;;;27.79;27.46
51053;BME280;37093;37.716;-122.060;2022-09-09T10:15:10;98621.08;;;27.74;27.86
51053;BME280;37093;37.716;-122.060;2022-09-09T10:17:52;98618.01;;;27.92;27.86
51053;BME280;37093;37.716;-122.060;2022-09-09T10:20:34;98615.77;;;27.36;27.90
51053;BME280;37093;37.716;-122.060;2022-09-09T10:23:13;98612.65;;;27.61;27.68
51053;BME280;37093;37.716;-122.060;2022-09-09T10:26:03;98609.03;;;27.80;27.89
51053;BME280;37093;37.716;-122.060;2022-09-09T10:28:52;98603.57;;;27.77;27.99
51053;BME280;37093;37.716;-122.060;2022-09-09T10:31:30;98602.33;;;27.71;28.00
51053;BME280;37093;37.716;-122.060;2022-09-09T10:34:10;98599.49;;;27.63;28.08
51053;BME280;37093;37.716;-122.060;2022-09-09T10:36:46;98596.95;;;27.62;28.03
51053;BME280;37093;37.716;-122.060;2022-09-09T10:39:22;98595.97;;;27.52;28.21
51053;BME280;37093;37.716;-122.060;2022-09-09T10:42:00;98596.34;;;27.46;28.20
51053;BME280;37093;37.716;-122.060;2022-09-09T10:44:41;98593.63;;;27.44;28.18
51053;BME280;37093;37.716;-122.060;2022-09-09T10:47:25;98592.56;;;27.43;28.08
51053;BME280;37093;37.716;-122.060;2022-09-09T10:50:17;98591.45;;;27.40;28.00
51053;BME280;37093;37.716;-122.060;2022-09-09T10:52:55;98587.74;;;27.17;27.96
51053;BME280;37093;37.716;-122.060;2022-09-09T10:55:37;98584.91;;;27.14;28.25
51053;BME280;37093;37.716;-122.060;2022-09-09T10:58:12;98579.73;;;27.35;28.29
51053;BME280;37093;37.716;-122.060;2022-09-09T11:00:45;98577.95;;;27.32;28.31
51053;BME280;37093;37.716;-122.060;2022-09-09T11:03:19;98575.70;;;27.31;28.06
51053;BME280;37093;37.716;-122.060;2022-09-09T11:05:51;98574.55;;;27.25;28.11
51053;BME280;37093;37.716;-122.060;2022-09-09T11:08:22;98573.11;;;27.23;28.22
51053;BME280;37093;37.716;-122.060;2022-09-09T11:10:55;98572.29;;;27.44;28.23
51053;BME280;37093;37.716;-122.060;2022-09-09T11:13:32;98575.16;;;27.13;28.14
51053;BME280;37093;37.716;-122.060;2022-09-09T11:16:16;98576.72;;;27.04;28.24
51053;BME280;37093;37.716;-122.060;2022-09-09T11:18:47;98574.29;;;26.98;28.37
51053;BME280;37093;37.716;-122.060;2022-09-09T11:21:20;98574.39;;;26.89;28.46
51053;BME280;37093;37.716;-122.060;2022-09-09T11:23:54;98573.06;;;26.82;28.16
51053;BME280;37093;37.716;-122.060;2022-09-09T11:26:32;98571.52;;;26.75;28.08
51053;BME280;37093;37.716;-122.060;2022-09-09T11:29:23;98569.24;;;26.96;28.12
51053;BME280;37093;37.716;-122.060;2022-09-09T11:32:05;98567.13;;;26.58;28.12
51053;BME280;37093;37.716;-122.060;2022-09-09T11:34:47;98569.14;;;26.80;28.22
51053;BME280;37093;37.716;-122.060;2022-09-09T11:37:34;98566.10;;;26.45;28.20
51053;BME280;37093;37.716;-122.060;2022-09-09T11:40:23;98561.49;;;26.40;28.18
51053;BME280;37093;37.716;-122.060;2022-09-09T11:43:03;98555.89;;;26.39;28.25
51053;BME280;37093;37.716;-122.060;2022-09-09T11:45:33;98549.56;;;26.57;28.35
51053;BME280;37093;37.716;-122.060;2022-09-09T11:48:03;98550.29;;;26.54;28.70
51053;BME280;37093;37.716;-122.060;2022-09-09T11:50:35;98552.43;;;26.67;28.74
51053;BME280;37093;37.716;-122.060;2022-09-09T11:53:22;98553.82;;;26.43;28.39
51053;BME280;37093;37.716;-122.060;2022-09-09T11:56:11;98550.30;;;26.57;28.45
51053;BME280;37093;37.716;-122.060;2022-09-09T11:58:43;98549.83;;;26.55;28.40
51053;BME280;37093;37.716;-122.060;2022-09-09T12:01:27;98548.40;;;26.49;28.53
51053;BME280;37093;37.716;-122.060;2022-09-09T12:04:38;98547.15;;;26.49;28.19
51053;BME280;37093;37.716;-122.060;2022-09-09T12:07:27;98544.07;;;26.26;28.39
51053;BME280;37093;37.716;-122.060;2022-09-09T12:10:00;98537.47;;;26.24;28.38
51053;BME280;37093;37.716;-122.060;2022-09-09T12:12:32;98536.36;;;26.21;28.61
51053;BME280;37093;37.716;-122.060;2022-09-09T12:15:26;98535.96;;;26.39;29.00
51053;BME280;37093;37.716;-122.060;2022-09-09T12:17:57;98536.88;;;26.15;28.82
51053;BME280;37093;37.716;-122.060;2022-09-09T12:20:33;98537.69;;;26.11;28.76
51053;BME280;37093;37.716;-122.060;2022-09-09T12:23:25;98537.90;;;26.33;28.46
51053;BME280;37093;37.716;-122.060;2022-09-09T12:26:05;98536.44;;;26.29;28.84
51053;BME280;37093;37.716;-122.060;2022-09-09T12:28:46;98532.40;;;26.27;28.50
51053;BME280;37093;37.716;-122.060;2022-09-09T12:31:21;98532.29;;;26.20;28.97
51053;BME280;37093;37.716;-122.060;2022-09-09T12:33:53;98532.46;;;26.19;29.02
51053;BME280;37093;37.716;-122.060;2022-09-09T12:36:24;98530.39;;;26.08;28.92
51053;BME280;37093;37.716;-122.060;2022-09-09T12:38:56;98527.49;;;26.06;28.59
51053;BME280;37093;37.716;-122.060;2022-09-09T12:41:27;98524.94;;;26.03;28.87
51053;BME280;37093;37.716;-122.060;2022-09-09T12:44:05;98528.29;;;26.18;28.88
51053;BME280;37093;37.716;-122.060;2022-09-09T12:46:36;98531.45;;;25.92;28.99
51053;BME280;37093;37.716;-122.060;2022-09-09T12:49:18;98530.90;;;25.84;28.84
51053;BME280;37093;37.716;-122.060;2022-09-09T12:51:50;98532.02;;;25.83;29.05
51053;BME280;37093;37.716;-122.060;2022-09-09T12:54:19;98530.98;;;25.75;29.00
51053;BME280;37093;37.716;-122.060;2022-09-09T12:56:50;98531.22;;;25.74;28.81
51053;BME280;37093;37.716;-122.060;2022-09-09T12:59:24;98527.93;;;25.89;29.04
51053;BME280;37093;37.716;-122.060;2022-09-09T13:01:57;98525.94;;;25.64;28.66
51053;BME280;37093;37.716;-122.060;2022-09-09T13:04:26;98521.52;;;25.57;28.58
51053;BME280;37093;37.716;-122.060;2022-09-09T13:06:54;98519.57;;;25.59;28.41
51053;BME280;37093;37.716;-122.060;2022-09-09T13:09:33;98518.94;;;25.75;28.91
51053;BME280;37093;37.716;-122.060;2022-09-09T13:12:02;98520.41;;;25.75;29.38
51053;BME280;37093;37.716;-122.060;2022-09-09T13:14:33;98520.96;;;25.67;29.42
51053;BME280;37093;37.716;-122.060;2022-09-09T13:17:04;98515.18;;;25.43;29.35
51053;BME280;37093;37.716;-122.060;2022-09-09T13:19:38;98511.47;;;25.60;29.01
51053;BME280;37093;37.716;-122.060;2022-09-09T13:22:13;98510.40;;;25.61;28.44
51053;BME280;37093;37.716;-122.060;2022-09-09T13:24:42;98513.08;;;25.82;29.14
51053;BME280;37093;37.716;-122.060;2022-09-09T13:27:28;98513.08;;;25.58;29.26
51053;BME280;37093;37.716;-122.060;2022-09-09T13:29:57;98516.48;;;25.50;29.40
51053;BME280;37093;37.716;-122.060;2022-09-09T13:32:26;98514.77;;;25.50;29.35
51053;BME280;37093;37.716;-122.060;2022-09-09T13:34:56;98512.88;;;25.43;29.29
51053;BME280;37093;37.716;-122.060;2022-09-09T13:37:34;98509.88;;;25.53;29.11
51053;BME280;37093;37.716;-122.060;2022-09-09T13:40:05;98508.13;;;25.44;29.17
51053;BME280;37093;37.716;-122.060;2022-09-09T13:42:39;98511.92;;;25.37;29.28
51053;BME280;37093;37.716;-122.060;2022-09-09T13:45:17;98515.51;;;25.11;29.16
51053;BME280;37093;37.716;-122.060;2022-09-09T13:47:46;98521.54;;;25.58;29.38
51053;BME280;37093;37.716;-122.060;2022-09-09T13:50:23;98521.07;;;25.30;29.12
51053;BME280;37093;37.716;-122.060;2022-09-09T13:52:54;98523.67;;;25.30;29.47
51053;BME280;37093;37.716;-122.060;2022-09-09T13:55:24;98523.35;;;25.53;29.32
51053;BME280;37093;37.716;-122.060;2022-09-09T13:57:54;98521.04;;;25.51;28.96
51053;BME280;37093;37.716;-122.060;2022-09-09T14:00:24;98520.30;;;25.48;29.42
51053;BME280;37093;37.716;-122.060;2022-09-09T14:02:53;98523.69;;;25.47;29.65
51053;BME280;37093;37.716;-122.060;2022-09-09T14:05:22;98529.62;;;25.21;29.72
51053;BME280;37093;37.716;-122.060;2022-09-09T14:07:51;98530.55;;;25.23;29.46
51053;BME280;37093;37.716;-122.060;2022-09-09T14:10:20;98528.92;;;25.21;29.46
51053;BME280;37093;37.716;-122.060;2022-09-09T14:12:48;98528.63;;;25.49;29.90
51053;BME280;37093;37.716;-122.060;2022-09-09T14:15:17;98532.56;;;25.49;30.01
51053;BME280;37093;37.716;-122.060;2022-09-09T14:17:45;98534.83;;;25.24;29.83
51053;BME280;37093;37.716;-122.060;2022-09-09T14:20:14;98537.02;;;25.24;30.17
51053;BME280;37093;37.716;-122.060;2022-09-09T14:22:43;98542.92;;;25.52;30.26
51053;BME280;37093;37.716;-122.060;2022-09-09T14:25:12;98544.22;;;25.24;30.16
51053;BME280;37093;37.716;-122.060;2022-09-09T14:27:40;98548.28;;;25.27;30.49
51053;BME280;37093;37.716;-122.060;2022-09-09T14:30:10;98549.39;;;25.07;30.36
51053;BME280;37093;37.716;-122.060;2022-09-09T14:32:38;98547.13;;;25.57;30.36
51053;BME280;37093;37.716;-122.060;2022-09-09T14:35:08;98547.55;;;25.11;30.65
51053;BME280;37093;37.716;-122.060;2022-09-09T14:37:36;98548.22;;;25.11;30.56
51053;BME280;37093;37.716;-122.060;2022-09-09T14:40:06;98554.06;;;25.33;30.61
51053;BME280;37093;37.716;-122.060;2022-09-09T14:42:34;98553.34;;;25.37;30.69
51053;BME280;37093;37.716;-122.060;2022-09-09T14:45:03;98559.16;;;25.37;30.80
51053;BME280;37093;37.716;-122.060;2022-09-09T14:47:32;98559.67;;;25.17;30.86
51053;BME280;37093;37.716;-122.060;2022-09-09T14:50:00;98559.11;;;25.69;30.84
51053;BME280;37093;37.716;-122.060;2022-09-09T14:52:30;98559.89;;;25.48;31.02
51053;BME280;37093;37.716;-122.060;2022-09-09T14:54:58;98560.12;;;25.52;30.81
51053;BME280;37093;37.716;-122.060;2022-09-09T14:57:27;98560.92;;;25.56;30.89
51053;BME280;37093;37.716;-122.060;2022-09-09T14:59:55;98563.33;;;25.60;30.76
51053;BME280;37093;37.716;-122.060;2022-09-09T15:02:24;98567.04;;;25.67;30.89
51053;BME280;37093;37.716;-122.060;2022-09-09T15:04:52;98569.72;;;25.71;31.03
51053;BME280;37093;37.716;-122.060;2022-09-09T15:07:21;98569.55;;;25.37;30.91
51053;BME280;37093;37.716;-122.060;2022-09-09T15:09:49;98571.76;;;25.91;30.48
51053;BME280;37093;37.716;-122.060;2022-09-09T15:12:18;98569.38;;;25.58;30.48
51053;BME280;37093;37.716;-122.060;2022-09-09T15:14:47;98569.65;;;25.72;30.37
51053;BME280;37093;37.716;-122.060;2022-09-09T15:17:16;98565.29;;;25.53;30.70
51053;BME280;37093;37.716;-122.060;2022-09-09T15:19:44;98566.20;;;26.20;30.73
51053;BME280;37093;37.716;-122.060;2022-09-09T15:22:13;98565.61;;;25.79;30.68
51053;BME280;37093;37.716;-122.060;2022-09-09T15:24:41;98565.71;;;26.46;30.94
51053;BME280;37093;37.716;-122.060;2022-09-09T15:27:09;98565.65;;;26.51;30.56
51053;BME280;37093;37.716;-122.060;2022-09-09T15:29:37;98567.97;;;26.27;31.05
51053;BME280;37093;37.716;-122.060;2022-09-09T15:32:06;98563.63;;;26.38;30.60
51053;BME280;37093;37.716;-122.060;2022-09-09T15:34:34;98563.50;;;26.65;30.19
51053;BME280;37093;37.716;-122.060;2022-09-09T15:37:02;98561.35;;;26.68;30.17
51053;BME280;37093;37.716;-122.060;2022-09-09T15:39:31;98555.49;;;26.95;29.27
51053;BME280;37093;37.716;-122.060;2022-09-09T15:41:59;98558.68;;;27.06;29.77
51053;BME280;37093;37.716;-122.060;2022-09-09T15:44:27;98560.56;;;27.00;28.46
51053;BME280;37093;37.716;-122.060;2022-09-09T15:46:55;98558.87;;;27.32;29.55
51053;BME280;37093;37.716;-122.060;2022-09-09T15:49:24;98559.84;;;27.33;28.74
51053;BME280;37093;37.716;-122.060;2022-09-09T15:51:55;98561.21;;;27.41;28.87
51053;BME280;37093;37.716;-122.060;2022-09-09T15:54:25;98562.90;;;27.68;28.56
51053;BME280;37093;37.716;-122.060;2022-09-09T15:56:55;98562.93;;;27.86;28.14
51053;BME280;37093;37.716;-122.060;2022-09-09T15:59:25;98566.81;;;27.60;29.00
51053;BME280;37093;37.716;-122.060;2022-09-09T16:01:53;98563.96;;;27.76;29.04
51053;BME280;37093;37.716;-122.060;2022-09-09T16:04:23;98558.39;;;28.11;28.68
51053;BME280;37093;37.716;-122.060;2022-09-09T16:06:53;98557.12;;;28.46;28.57
51053;BME280;37093;37.716;-122.060;2022-09-09T16:09:22;98557.81;;;28.21;29.52
51053;BME280;37093;37.716;-122.060;2022-09-09T16:11:50;98556.47;;;28.61;29.12
51053;BME280;37093;37.716;-122.060;2022-09-09T16:14:19;98555.27;;;28.75;28.57
51053;BME280;37093;37.716;-122.060;2022-09-09T16:16:48;98553.78;;;29.12;28.39
51053;BME280;37093;37.716;-122.060;2022-09-09T16:19:16;98554.09;;;29.04;29.06
51053;BME280;37093;37.716;-122.060;2022-09-09T16:21:46;98553.89;;;29.09;29.23
51053;BME280;37093;37.716;-122.060;2022-09-09T16:24:17;98551.39;;;29.32;27.38
51053;BME280;37093;37.716;-122.060;2022-09-09T16:26:47;98552.72;;;29.73;27.98
51053;BME280;37093;37.716;-122.060;2022-09-09T16:29:16;98551.74;;;29.84;28.32
51053;BME280;37093;37.716;-122.060;2022-09-09T16:31:46;98552.57;;;30.05;27.46
51053;BME280;37093;37.716;-122.060;2022-09-09T16:34:15;98551.71;;;30.17;28.10
51053;BME280;37093;37.716;-122.060;2022-09-09T16:36:44;98548.40;;;30.21;27.88
51053;BME280;37093;37.716;-122.060;2022-09-09T16:39:14;98546.76;;;30.13;28.27
51053;BME280;37093;37.716;-122.060;2022-09-09T16:41:44;98541.98;;;30.86;28.15
51053;BME280;37093;37.716;-122.060;2022-09-09T16:44:15;98538.98;;;30.69;27.99
51053;BME280;37093;37.716;-122.060;2022-09-09T16:46:44;98537.84;;;30.80;27.57
51053;BME280;37093;37.716;-122.060;2022-09-09T16:49:14;98540.13;;;31.04;25.62
51053;BME280;37093;37.716;-122.060;2022-09-09T16:51:43;98539.18;;;31.35;27.74
51053;BME280;37093;37.716;-122.060;2022-09-09T16:54:12;98537.60;;;31.45;26.54
51053;BME280;37093;37.716;-122.060;2022-09-09T16:56:42;98535.47;;;31.63;25.34
51053;BME280;37093;37.716;-122.060;2022-09-09T16:59:12;98534.44;;;31.58;24.96
51053;BME280;37093;37.716;-122.060;2022-09-09T17:01:42;98534.17;;;31.78;26.58
51053;BME280;37093;37.716;-122.060;2022-09-09T17:04:12;98533.26;;;32.06;26.66
51053;BME280;37093;37.716;-122.060;2022-09-09T17:06:41;98529.03;;;32.35;26.95
51053;BME280;37093;37.716;-122.060;2022-09-09T17:09:11;98528.34;;;32.02;24.51
51053;BME280;37093;37.716;-122.060;2022-09-09T17:11:40;98525.16;;;32.11;27.22
51053;BME280;37093;37.716;-122.060;2022-09-09T17:14:13;98520.32;;;32.03;24.36
51053;BME280;37093;37.716;-122.060;2022-09-09T17:16:43;98523.78;;;32.76;26.70
51053;BME280;37093;37.716;-122.060;2022-09-09T17:19:12;98527.03;;;33.05;25.21
51053;BME280;37093;37.716;-122.060;2022-09-09T17:21:40;98527.17;;;32.79;25.59
51053;BME280;37093;37.716;-122.060;2022-09-09T17:24:10;98532.21;;;32.74;25.49
51053;BME280;37093;37.716;-122.060;2022-09-09T17:26:38;98530.84;;;33.52;24.68
51053;BME280;37093;37.716;-122.060;2022-09-09T17:29:06;98531.68;;;33.21;23.50
51053;BME280;37093;37.716;-122.060;2022-09-09T17:31:34;98527.78;;;33.21;24.50
51053;BME280;37093;37.716;-122.060;2022-09-09T17:34:02;98526.42;;;33.27;25.53
51053;BME280;37093;37.716;-122.060;2022-09-09T17:36:33;98524.07;;;33.39;23.39
51053;BME280;37093;37.716;-122.060;2022-09-09T17:39:02;98524.03;;;33.83;24.44
51053;BME280;37093;37.716;-122.060;2022-09-09T17:41:33;98530.45;;;33.72;24.26
51053;BME280;37093;37.716;-122.060;2022-09-09T17:44:02;98535.84;;;33.84;23.72
51053;BME280;37093;37.716;-122.060;2022-09-09T17:46:31;98537.16;;;33.76;21.73
51053;BME280;37093;37.716;-122.060;2022-09-09T17:49:02;98535.30;;;34.16;23.20
51053;BME280;37093;37.716;-122.060;2022-09-09T17:51:33;98537.59;;;34.07;22.09
51053;BME280;37093;37.716;-122.060;2022-09-09T17:54:03;98535.23;;;34.55;21.95
51053;BME280;37093;37.716;-122.060;2022-09-09T17:56:32;98538.49;;;34.25;24.10
51053;BME280;37093;37.716;-122.060;2022-09-09T17:59:04;98531.19;;;34.48;21.50
51053;BME280;37093;37.716;-122.060;2022-09-09T18:01:35;98526.23;;;34.67;20.94
51053;BME280;37093;37.716;-122.060;2022-09-09T18:04:06;98526.63;;;34.79;21.94
51053;BME280;37093;37.716;-122.060;2022-09-09T18:06:37;98523.21;;;35.12;20.98
51053;BME280;37093;37.716;-122.060;2022-09-09T18:09:08;98523.87;;;34.99;21.18
51053;BME280;37093;37.716;-122.060;2022-09-09T18:11:39;98519.79;;;34.60;22.07
51053;BME280;37093;37.716;-122.060;2022-09-09T18:14:08;98520.51;;;34.85;19.94
51053;BME280;37093;37.716;-122.060;2022-09-09T18:16:37;98521.17;;;35.11;22.45
51053;BME280;37093;37.716;-122.060;2022-09-09T18:19:08;98522.83;;;35.01;21.47
51053;BME280;37093;37.716;-122.060;2022-09-09T18:21:37;98524.58;;;34.91;19.65
51053;BME280;37093;37.716;-122.060;2022-09-09T18:24:07;98523.78;;;35.48;21.78
51053;BME280;37093;37.716;-122.060;2022-09-09T18:26:35;98520.35;;;35.16;20.76
51053;BME280;37093;37.716;-122.060;2022-09-09T18:29:06;98522.74;;;35.56;20.70
51053;BME280;37093;37.716;-122.060;2022-09-09T18:31:35;98520.36;;;35.49;18.87
51053;BME280;37093;37.716;-122.060;2022-09-09T18:34:04;98518.56;;;35.86;20.36
51053;BME280;37093;37.716;-122.060;2022-09-09T18:36:35;98513.66;;;35.60;20.40
51053;BME280;37093;37.716;-122.060;2022-09-09T18:39:05;98507.03;;;36.01;19.20
51053;BME280;37093;37.716;-122.060;2022-09-09T18:41:35;98506.53;;;35.91;19.21
51053;BME280;37093;37.716;-122.060;2022-09-09T18:44:06;98504.09;;;35.98;18.91
51053;BME280;37093;37.716;-122.060;2022-09-09T18:46:35;98502.53;;;35.82;19.61
51053;BME280;37093;37.716;-122.060;2022-09-09T18:49:04;98498.14;;;36.08;20.96
51053;BME280;37093;37.716;-122.060;2022-09-09T18:51:33;98495.39;;;35.89;21.26
51053;BME280;37093;37.716;-122.060;2022-09-09T18:54:04;98489.58;;;36.36;21.24
51053;BME280;37093;37.716;-122.060;2022-09-09T18:56:32;98486.13;;;36.36;18.82
51053;BME280;37093;37.716;-122.060;2022-09-09T18:59:03;98486.01;;;36.29;17.98
51053;BME280;37093;37.716;-122.060;2022-09-09T19:01:32;98483.98;;;36.26;19.79
51053;BME280;37093;37.716;-122.060;2022-09-09T19:04:00;98476.57;;;36.27;19.31
51053;BME280;37093;37.716;-122.060;2022-09-09T19:06:31;98473.30;;;36.35;19.11
51053;BME280;37093;37.716;-122.060;2022-09-09T19:08:59;98470.22;;;36.41;17.95
51053;BME280;37093;37.716;-122.060;2022-09-09T19:11:27;98464.77;;;36.38;19.55
51053;BME280;37093;37.716;-122.060;2022-09-09T19:13:58;98463.19;;;36.50;18.37
51053;BME280;37093;37.716;-122.060;2022-09-09T19:16:28;98459.69;;;36.41;19.78
51053;BME280;37093;37.716;-122.060;2022-09-09T19:18:58;98453.91;;;36.66;19.26
51053;BME280;37093;37.716;-122.060;2022-09-09T19:21:30;98454.09;;;36.44;19.69
51053;BME280;37093;37.716;-122.060;2022-09-09T19:24:02;98451.14;;;36.66;17.70
51053;BME280;37093;37.716;-122.060;2022-09-09T19:26:32;98445.70;;;36.61;18.51
51053;BME280;37093;37.716;-122.060;2022-09-09T19:29:01;98438.87;;;36.72;19.55
51053;BME280;37093;37.716;-122.060;2022-09-09T19:31:29;98436.98;;;35.97;19.99
51053;BME280;37093;37.716;-122.060;2022-09-09T19:33:58;98431.65;;;36.41;17.76
51053;BME280;37093;37.716;-122.060;2022-09-09T19:36:26;98429.83;;;36.95;17.32
51053;BME280;37093;37.716;-122.060;2022-09-09T19:38:54;98427.34;;;36.55;19.00
51053;BME280;37093;37.716;-122.060;2022-09-09T19:41:25;98426.05;;;36.67;18.55
51053;BME280;37093;37.716;-122.060;2022-09-09T19:43:57;98427.44;;;36.89;17.52
51053;BME280;37093;37.716;-122.060;2022-09-09T19:46:25;98429.55;;;37.31;18.46
51053;BME280;37093;37.716;-122.060;2022-09-09T19:48:54;98426.59;;;37.06;19.04
51053;BME280;37093;37.716;-122.060;2022-09-09T19:51:23;98422.74;;;36.76;18.92
51053;BME280;37093;37.716;-122.060;2022-09-09T19:53:54;98414.31;;;36.94;20.88
51053;BME280;37093;37.716;-122.060;2022-09-09T19:56:24;98411.33;;;37.48;16.99